sensor_id;sensor_type;location;lat;lon;timestamp;temperature;humidity
9971;DHT22;5026;51.494;11.974;2022-09-09T00:01:46;15.30;99.90
9971;DHT22;5026;51.494;11.974;2022-09-09T00:04:25;15.30;99.90
9971;DHT22;5026;51.494;11.974;2022-09-09T00:06:59;15.30;99.90
9971;DHT22;5026;51.494;11.974;2022-09-09T00:09:31;15.30;99.90
9971;DHT22;5026;51.494;11.974;2022-09-09T00:12:01;15.40;99.90
9971;DHT22;5026;51.494;11.974;2022-09-09T00:14:34;15.30;99.90
9971;DHT22;5026;51.494;11.974;2022-09-09T00:17:09;15.30;99.90
9971;DHT22;5026;51.494;11.974;2022-09-09T00:19:44;15.20;99.90
9971;DHT22;5026;51.494;11.974;2022-09-09T00:22:17;15.20;99.90
9971;DHT22;5026;51.494;11.974;2022-09-09T00:24:46;15.20;99.90
9971;DHT22;5026;51.494;11.974;2022-09-09T00:27:19;15.20;99.90
9971;DHT22;5026;51.494;11.974;2022-09-09T00:29:53;15.30;99.90
9971;DHT22;5026;51.494;11.974;2022-09-09T00:32:22;15.20;99.90
9971;DHT22;5026;51.494;11.974;2022-09-09T00:34:54;15.20;99.90
9971;DHT22;5026;51.494;11.974;2022-09-09T00:37:22;15.20;99.90
9971;DHT22;5026;51.494;11.974;2022-09-09T00:39:52;15.20;99.90
9971;DHT22;5026;51.494;11.974;2022-09-09T00:42:25;15.20;99.90
9971;DHT22;5026;51.494;11.974;2022-09-09T00:44:58;15.20;99.90
9971;DHT22;5026;51.494;11.974;2022-09-09T00:47:44;15.20;99.90
9971;DHT22;5026;51.494;11.974;2022-09-09T00:50:29;15.10;99.90
9971;DHT22;5026;51.494;11.974;2022-09-09T00:53:05;15.20;99.90
9971;DHT22;5026;51.494;11.974;2022-09-09T00:55:42;15.20;99.90
9971;DHT22;5026;51.494;11.974;2022-09-09T00:58:12;15.10;99.90
9971;DHT22;5026;51.494;11.974;2022-09-09T01:00:44;15.10;99.90
9971;DHT22;5026;51.494;11.974;2022-09-09T01:03:22;15.10;99.90
9971;DHT22;5026;51.494;11.974;2022-09-09T01:06:00;15.00;99.90
9971;DHT22;5026;51.494;11.974;2022-09-09T01:08:42;15.00;99.90
9971;DHT22;5026;51.494;11.974;2022-09-09T01:11:20;15.00;99.90
9971;DHT22;5026;51.494;11.974;2022-09-09T01:13:53;15.00;99.90
9971;DHT22;5026;51.494;11.974;2022-09-09T01:16:26;15.00;99.90
9971;DHT22;5026;51.494;11.974;2022-09-09T01:18:56;15.00;99.90
9971;DHT22;5026;51.494;11.974;2022-09-09T01:21:32;14.90;99.90
9971;DHT22;5026;51.494;11.974;2022-09-09T01:26:52;14.80;99.90
9971;DHT22;5026;51.494;11.974;2022-09-09T01:31:54;14.90;99.90
9971;DHT22;5026;51.494;11.974;2022-09-09T01:34:23;15.10;99.90
9971;DHT22;5026;51.494;11.974;2022-09-09T01:36:55;15.10;99.90
9971;DHT22;5026;51.494;11.974;2022-09-09T01:41:52;15.10;99.90
9971;DHT22;5026;51.494;11.974;2022-09-09T01:46:47;15.10;99.90
9971;DHT22;5026;51.494;11.974;2022-09-09T01:49:14;15.10;99.90
9971;DHT22;5026;51.494;11.974;2022-09-09T01:51:41;15.10;99.90
9971;DHT22;5026;51.494;11.974;2022-09-09T01:54:10;15.10;99.90
9971;DHT22;5026;51.494;11.974;2022-09-09T01:56:43;15.10;99.90
9971;DHT22;5026;51.494;11.974;2022-09-09T02:02:11;15.00;99.90
9971;DHT22;5026;51.494;11.974;2022-09-09T02:04:40;14.90;99.90
9971;DHT22;5026;51.494;11.974;2022-09-09T02:07:19;14.90;99.90
9971;DHT22;5026;51.494;11.974;2022-09-09T02:09:55;14.80;99.90
9971;DHT22;5026;51.494;11.974;2022-09-09T02:12:25;14.80;99.90
9971;DHT22;5026;51.494;11.974;2022-09-09T02:15:00;14.80;99.90
9971;DHT22;5026;51.494;11.974;2022-09-09T02:17:32;14.90;99.90
9971;DHT22;5026;51.494;11.974;2022-09-09T02:20:03;15.10;99.90
9971;DHT22;5026;51.494;11.974;2022-09-09T02:22:32;15.20;99.90
9971;DHT22;5026;51.494;11.974;2022-09-09T02:25:02;15.20;99.90
9971;DHT22;5026;51.494;11.974;2022-09-09T02:27:31;15.20;99.90
9971;DHT22;5026;51.494;11.974;2022-09-09T02:30:00;15.20;99.90
9971;DHT22;5026;51.494;11.974;2022-09-09T02:32:29;15.10;99.90
9971;DHT22;5026;51.494;11.974;2022-09-09T02:35:00;15.10;99.90
9971;DHT22;5026;51.494;11.974;2022-09-09T02:37:33;15.10;99.90
9971;DHT22;5026;51.494;11.974;2022-09-09T02:40:02;15.10;99.90
9971;DHT22;5026;51.494;11.974;2022-09-09T02:44:56;15.10;99.90
9971;DHT22;5026;51.494;11.974;2022-09-09T02:47:32;15.20;99.90
9971;DHT22;5026;51.494;11.974;2022-09-09T02:50:12;15.20;99.90
9971;DHT22;5026;51.494;11.974;2022-09-09T02:52:47;15.20;99.90
9971;DHT22;5026;51.494;11.974;2022-09-09T02:55:20;15.10;99.90
9971;DHT22;5026;51.494;11.974;2022-09-09T02:57:50;15.10;99.90
9971;DHT22;5026;51.494;11.974;2022-09-09T03:00:23;15.00;99.90
9971;DHT22;5026;51.494;11.974;2022-09-09T03:02:52;15.00;99.90
9971;DHT22;5026;51.494;11.974;2022-09-09T03:05:20;15.00;99.90
9971;DHT22;5026;51.494;11.974;2022-09-09T03:07:47;15.10;99.90
9971;DHT22;5026;51.494;11.974;2022-09-09T03:10:15;15.00;99.90
9971;DHT22;5026;51.494;11.974;2022-09-09T03:15:09;15.00;99.90
9971;DHT22;5026;51.494;11.974;2022-09-09T03:20:05;14.80;99.90
9971;DHT22;5026;51.494;11.974;2022-09-09T03:22:32;15.60;99.90
9971;DHT22;5026;51.494;11.974;2022-09-09T03:24:59;14.80;99.90
9971;DHT22;5026;51.494;11.974;2022-09-09T03:27:28;14.70;99.90
9971;DHT22;5026;51.494;11.974;2022-09-09T03:29:54;14.70;99.90
9971;DHT22;5026;51.494;11.974;2022-09-09T03:32:21;14.80;99.90
9971;DHT22;5026;51.494;11.974;2022-09-09T03:34:55;14.70;99.90
9971;DHT22;5026;51.494;11.974;2022-09-09T03:37:23;14.80;99.90
9971;DHT22;5026;51.494;11.974;2022-09-09T03:39:50;14.80;99.90
9971;DHT22;5026;51.494;11.974;2022-09-09T03:47:16;14.80;99.90
9971;DHT22;5026;51.494;11.974;2022-09-09T03:49:43;14.80;99.90
9971;DHT22;5026;51.494;11.974;2022-09-09T03:54:39;15.10;99.90
9971;DHT22;5026;51.494;11.974;2022-09-09T03:57:08;15.10;99.90
9971;DHT22;5026;51.494;11.974;2022-09-09T04:02:02;15.10;99.90
9971;DHT22;5026;51.494;11.974;2022-09-09T04:04:29;15.10;99.90
9971;DHT22;5026;51.494;11.974;2022-09-09T04:06:56;15.00;99.90
9971;DHT22;5026;51.494;11.974;2022-09-09T04:09:23;15.00;99.90
9971;DHT22;5026;51.494;11.974;2022-09-09T04:11:51;15.10;99.90
9971;DHT22;5026;51.494;11.974;2022-09-09T04:14:19;15.20;99.90
9971;DHT22;5026;51.494;11.974;2022-09-09T04:16:46;15.20;99.90
9971;DHT22;5026;51.494;11.974;2022-09-09T04:21:40;15.40;99.90
9971;DHT22;5026;51.494;11.974;2022-09-09T04:24:08;15.40;99.90
9971;DHT22;5026;51.494;11.974;2022-09-09T04:26:36;15.40;99.90
9971;DHT22;5026;51.494;11.974;2022-09-09T04:29:04;15.40;99.90
9971;DHT22;5026;51.494;11.974;2022-09-09T04:31:33;15.30;99.90
9971;DHT22;5026;51.494;11.974;2022-09-09T04:34:00;15.40;99.90
9971;DHT22;5026;51.494;11.974;2022-09-09T04:36:31;15.50;99.90
9971;DHT22;5026;51.494;11.974;2022-09-09T04:38:58;15.50;99.90
9971;DHT22;5026;51.494;11.974;2022-09-09T04:43:52;15.70;99.90
9971;DHT22;5026;51.494;11.974;2022-09-09T04:46:21;15.70;99.90
9971;DHT22;5026;51.494;11.974;2022-09-09T04:48:48;15.80;99.90
9971;DHT22;5026;51.494;11.974;2022-09-09T04:51:16;15.90;99.90
9971;DHT22;5026;51.494;11.974;2022-09-09T04:56:12;15.90;99.90
9971;DHT22;5026;51.494;11.974;2022-09-09T04:58:40;15.90;99.90
9971;DHT22;5026;51.494;11.974;2022-09-09T05:01:10;15.90;99.90
9971;DHT22;5026;51.494;11.974;2022-09-09T05:03:39;15.90;99.90
9971;DHT22;5026;51.494;11.974;2022-09-09T05:06:15;15.90;99.90
9971;DHT22;5026;51.494;11.974;2022-09-09T05:08:43;15.90;99.90
9971;DHT22;5026;51.494;11.974;2022-09-09T05:11:14;15.90;99.90
9971;DHT22;5026;51.494;11.974;2022-09-09T05:13:42;15.80;99.90
9971;DHT22;5026;51.494;11.974;2022-09-09T05:16:09;15.80;99.90
9971;DHT22;5026;51.494;11.974;2022-09-09T05:23:33;15.80;99.90
9971;DHT22;5026;51.494;11.974;2022-09-09T05:26:01;15.80;99.90
9971;DHT22;5026;51.494;11.974;2022-09-09T05:28:28;15.90;99.90
9971;DHT22;5026;51.494;11.974;2022-09-09T05:30:56;15.80;99.90
9971;DHT22;5026;51.494;11.974;2022-09-09T05:33:24;15.90;99.90
9971;DHT22;5026;51.494;11.974;2022-09-09T05:35:56;16.00;99.90
9971;DHT22;5026;51.494;11.974;2022-09-09T05:40:52;16.00;99.90
9971;DHT22;5026;51.494;11.974;2022-09-09T05:43:19;16.10;99.90
9971;DHT22;5026;51.494;11.974;2022-09-09T05:45:46;16.10;99.90
9971;DHT22;5026;51.494;11.974;2022-09-09T05:53:10;19.30;99.90
9971;DHT22;5026;51.494;11.974;2022-09-09T05:58:06;16.30;99.90
9971;DHT22;5026;51.494;11.974;2022-09-09T06:00:32;16.40;99.90
9971;DHT22;5026;51.494;11.974;2022-09-09T06:05:26;16.50;99.90
9971;DHT22;5026;51.494;11.974;2022-09-09T06:10:21;16.60;99.90
9971;DHT22;5026;51.494;11.974;2022-09-09T06:12:48;16.60;99.90
9971;DHT22;5026;51.494;11.974;2022-09-09T06:15:17;16.70;99.90
9971;DHT22;5026;51.494;11.974;2022-09-09T06:20:11;16.90;99.90
9971;DHT22;5026;51.494;11.974;2022-09-09T06:22:39;16.90;99.90
9971;DHT22;5026;51.494;11.974;2022-09-09T06:25:08;17.00;99.90
9971;DHT22;5026;51.494;11.974;2022-09-09T06:30:02;16.90;99.90
9971;DHT22;5026;51.494;11.974;2022-09-09T06:32:30;16.90;99.90
9971;DHT22;5026;51.494;11.974;2022-09-09T06:39:55;17.00;99.90
9971;DHT22;5026;51.494;11.974;2022-09-09T06:44:49;17.40;99.90
9971;DHT22;5026;51.494;11.974;2022-09-09T06:47:15;17.50;99.90
9971;DHT22;5026;51.494;11.974;2022-09-09T06:49:43;17.80;99.90
9971;DHT22;5026;51.494;11.974;2022-09-09T06:52:10;18.00;99.90
9971;DHT22;5026;51.494;11.974;2022-09-09T06:59:32;22.70;98.00
9971;DHT22;5026;51.494;11.974;2022-09-09T07:06:55;28.80;90.20
9971;DHT22;5026;51.494;11.974;2022-09-09T07:09:22;28.90;90.30
9971;DHT22;5026;51.494;11.974;2022-09-09T07:11:50;31.30;81.00
9971;DHT22;5026;51.494;11.974;2022-09-09T07:14:18;30.90;75.70
9971;DHT22;5026;51.494;11.974;2022-09-09T07:16:45;27.20;76.80
9971;DHT22;5026;51.494;11.974;2022-09-09T07:19:13;25.20;80.30
9971;DHT22;5026;51.494;11.974;2022-09-09T07:24:09;22.70;88.60
9971;DHT22;5026;51.494;11.974;2022-09-09T07:26:37;22.60;90.20
9971;DHT22;5026;51.494;11.974;2022-09-09T07:31:33;25.70;89.80
9971;DHT22;5026;51.494;11.974;2022-09-09T07:34:00;30.10;82.80
9971;DHT22;5026;51.494;11.974;2022-09-09T07:36:28;30.40;83.10
9971;DHT22;5026;51.494;11.974;2022-09-09T07:38:58;33.80;74.40
9971;DHT22;5026;51.494;11.974;2022-09-09T07:41:28;36.60;67.10
9971;DHT22;5026;51.494;11.974;2022-09-09T07:46:25;36.90;60.10
9971;DHT22;5026;51.494;11.974;2022-09-09T07:48:53;38.70;57.00
9971;DHT22;5026;51.494;11.974;2022-09-09T07:51:23;38.30;57.40
9971;DHT22;5026;51.494;11.974;2022-09-09T07:53:53;39.20;55.30
9971;DHT22;5026;51.494;11.974;2022-09-09T07:56:20;39.70;54.50
9971;DHT22;5026;51.494;11.974;2022-09-09T07:58:50;40.50;53.10
9971;DHT22;5026;51.494;11.974;2022-09-09T08:01:19;36.20;54.30
9971;DHT22;5026;51.494;11.974;2022-09-09T08:03:51;34.90;56.90
9971;DHT22;5026;51.494;11.974;2022-09-09T08:06:19;35.30;57.60
9971;DHT22;5026;51.494;11.974;2022-09-09T08:08:49;38.40;55.90
9971;DHT22;5026;51.494;11.974;2022-09-09T08:11:17;39.80;54.10
9971;DHT22;5026;51.494;11.974;2022-09-09T08:13:44;40.10;52.90
9971;DHT22;5026;51.494;11.974;2022-09-09T08:16:14;40.50;52.70
9971;DHT22;5026;51.494;11.974;2022-09-09T08:18:41;37.70;53.80
9971;DHT22;5026;51.494;11.974;2022-09-09T08:21:10;37.80;54.30
9971;DHT22;5026;51.494;11.974;2022-09-09T08:23:38;39.70;53.60
9971;DHT22;5026;51.494;11.974;2022-09-09T08:26:08;41.50;51.60
9971;DHT22;5026;51.494;11.974;2022-09-09T08:28:36;41.30;51.40
9971;DHT22;5026;51.494;11.974;2022-09-09T08:31:12;42.50;50.90
9971;DHT22;5026;51.494;11.974;2022-09-09T08:33:39;41.90;50.40
9971;DHT22;5026;51.494;11.974;2022-09-09T08:36:09;40.40;50.40
9971;DHT22;5026;51.494;11.974;2022-09-09T08:38:36;38.20;52.30
9971;DHT22;5026;51.494;11.974;2022-09-09T08:41:18;37.70;52.80
9971;DHT22;5026;51.494;11.974;2022-09-09T08:43:51;36.80;52.30
9971;DHT22;5026;51.494;11.974;2022-09-09T08:46:25;34.90;54.50
9971;DHT22;5026;51.494;11.974;2022-09-09T08:48:57;35.90;55.10
9971;DHT22;5026;51.494;11.974;2022-09-09T08:51:28;35.80;55.10
9971;DHT22;5026;51.494;11.974;2022-09-09T08:53:58;35.80;55.90
9971;DHT22;5026;51.494;11.974;2022-09-09T08:56:27;34.90;55.30
9971;DHT22;5026;51.494;11.974;2022-09-09T08:59:00;34.90;55.90
9971;DHT22;5026;51.494;11.974;2022-09-09T09:01:43;35.20;55.20
9971;DHT22;5026;51.494;11.974;2022-09-09T09:04:25;34.90;55.50
9971;DHT22;5026;51.494;11.974;2022-09-09T09:07:03;34.70;55.70
9971;DHT22;5026;51.494;11.974;2022-09-09T09:09:39;34.20;55.60
9971;DHT22;5026;51.494;11.974;2022-09-09T09:12:15;33.60;56.20
9971;DHT22;5026;51.494;11.974;2022-09-09T09:14:43;33.20;56.60
9971;DHT22;5026;51.494;11.974;2022-09-09T09:17:16;32.70;57.40
9971;DHT22;5026;51.494;11.974;2022-09-09T09:19:46;32.40;57.70
9971;DHT22;5026;51.494;11.974;2022-09-09T09:22:17;31.30;58.80
9971;DHT22;5026;51.494;11.974;2022-09-09T09:24:50;31.50;60.00
9971;DHT22;5026;51.494;11.974;2022-09-09T09:27:25;30.40;60.20
9971;DHT22;5026;51.494;11.974;2022-09-09T09:29:55;30.00;60.90
9971;DHT22;5026;51.494;11.974;2022-09-09T09:32:27;29.90;61.20
9971;DHT22;5026;51.494;11.974;2022-09-09T09:34:56;29.70;61.60
9971;DHT22;5026;51.494;11.974;2022-09-09T09:37:27;29.60;62.10
9971;DHT22;5026;51.494;11.974;2022-09-09T09:39:55;29.80;62.10
9971;DHT22;5026;51.494;11.974;2022-09-09T09:42:22;29.20;62.50
9971;DHT22;5026;51.494;11.974;2022-09-09T09:44:49;29.20;63.60
9971;DHT22;5026;51.494;11.974;2022-09-09T09:47:18;29.10;63.40
9971;DHT22;5026;51.494;11.974;2022-09-09T09:49:57;29.00;63.70
9971;DHT22;5026;51.494;11.974;2022-09-09T09:52:26;28.90;64.20
9971;DHT22;5026;51.494;11.974;2022-09-09T09:54:54;29.10;64.20
9971;DHT22;5026;51.494;11.974;2022-09-09T09:57:25;29.30;64.10
9971;DHT22;5026;51.494;11.974;2022-09-09T10:00:03;29.50;63.90
9971;DHT22;5026;51.494;11.974;2022-09-09T10:02:38;29.10;64.60
9971;DHT22;5026;51.494;11.974;2022-09-09T10:05:13;28.90;64.80
9971;DHT22;5026;51.494;11.974;2022-09-09T10:07:41;27.60;65.50
9971;DHT22;5026;51.494;11.974;2022-09-09T10:10:15;26.90;66.30
9971;DHT22;5026;51.494;11.974;2022-09-09T10:12:52;26.60;67.10
9971;DHT22;5026;51.494;11.974;2022-09-09T10:15:30;26.50;67.80
9971;DHT22;5026;51.494;11.974;2022-09-09T10:18:04;26.90;68.00
9971;DHT22;5026;51.494;11.974;2022-09-09T10:20:41;26.90;67.70
9971;DHT22;5026;51.494;11.974;2022-09-09T10:23:22;26.20;68.40
9971;DHT22;5026;51.494;11.974;2022-09-09T10:26:16;26.10;69.20
9971;DHT22;5026;51.494;11.974;2022-09-09T10:29:05;26.20;69.60
9971;DHT22;5026;51.494;11.974;2022-09-09T10:31:40;26.20;70.00
9971;DHT22;5026;51.494;11.974;2022-09-09T10:34:21;25.30;69.80
9971;DHT22;5026;51.494;11.974;2022-09-09T10:36:53;25.00;71.30
9971;DHT22;5026;51.494;11.974;2022-09-09T10:39:32;25.20;70.90
9971;DHT22;5026;51.494;11.974;2022-09-09T10:42:04;25.20;71.30
9971;DHT22;5026;51.494;11.974;2022-09-09T10:44:42;24.90;71.60
9971;DHT22;5026;51.494;11.974;2022-09-09T10:47:43;24.20;72.10
9971;DHT22;5026;51.494;11.974;2022-09-09T10:50:29;23.90;74.20
9971;DHT22;5026;51.494;11.974;2022-09-09T10:53:08;23.70;76.70
9971;DHT22;5026;51.494;11.974;2022-09-09T10:55:38;24.00;78.90
9971;DHT22;5026;51.494;11.974;2022-09-09T10:58:12;23.80;82.40
9971;DHT22;5026;51.494;11.974;2022-09-09T11:00:44;23.80;85.20
9971;DHT22;5026;51.494;11.974;2022-09-09T11:03:19;23.80;85.70
9971;DHT22;5026;51.494;11.974;2022-09-09T11:05:49;24.20;86.90
9971;DHT22;5026;51.494;11.974;2022-09-09T11:08:20;24.40;86.20
9971;DHT22;5026;51.494;11.974;2022-09-09T11:10:51;25.00;87.00
9971;DHT22;5026;51.494;11.974;2022-09-09T11:13:24;25.30;85.10
9971;DHT22;5026;51.494;11.974;2022-09-09T11:15:58;25.40;84.30
9971;DHT22;5026;51.494;11.974;2022-09-09T11:18:29;25.40;83.20
9971;DHT22;5026;51.494;11.974;2022-09-09T11:21:00;25.50;81.80
9971;DHT22;5026;51.494;11.974;2022-09-09T11:23:37;25.50;80.30
9971;DHT22;5026;51.494;11.974;2022-09-09T11:26:06;25.40;80.00
9971;DHT22;5026;51.494;11.974;2022-09-09T11:28:46;25.10;81.30
9971;DHT22;5026;51.494;11.974;2022-09-09T11:31:27;24.80;81.50
9971;DHT22;5026;51.494;11.974;2022-09-09T11:34:12;24.60;81.70
9971;DHT22;5026;51.494;11.974;2022-09-09T11:37:11;24.50;82.90
9971;DHT22;5026;51.494;11.974;2022-09-09T11:42:40;24.50;81.80
9971;DHT22;5026;51.494;11.974;2022-09-09T11:45:19;24.20;82.60
9971;DHT22;5026;51.494;11.974;2022-09-09T11:47:52;24.30;81.80
9971;DHT22;5026;51.494;11.974;2022-09-09T11:50:31;24.30;81.20
9971;DHT22;5026;51.494;11.974;2022-09-09T11:53:18;24.30;81.50
9971;DHT22;5026;51.494;11.974;2022-09-09T11:55:48;24.60;82.00
9971;DHT22;5026;51.494;11.974;2022-09-09T11:58:17;24.70;81.90
9971;DHT22;5026;51.494;11.974;2022-09-09T12:00:47;24.60;81.00
9971;DHT22;5026;51.494;11.974;2022-09-09T12:03:39;25.00;81.20
9971;DHT22;5026;51.494;11.974;2022-09-09T12:06:14;25.30;81.40
9971;DHT22;5026;51.494;11.974;2022-09-09T12:08:44;25.50;81.70
9971;DHT22;5026;51.494;11.974;2022-09-09T12:11:12;25.60;81.10
9971;DHT22;5026;51.494;11.974;2022-09-09T12:13:54;25.60;79.70
9971;DHT22;5026;51.494;11.974;2022-09-09T12:16:30;25.40;79.50
9971;DHT22;5026;51.494;11.974;2022-09-09T12:19:04;25.10;80.40
9971;DHT22;5026;51.494;11.974;2022-09-09T12:21:36;24.90;80.70
9971;DHT22;5026;51.494;11.974;2022-09-09T12:24:08;24.90;80.60
9971;DHT22;5026;51.494;11.974;2022-09-09T12:26:39;25.00;80.00
9971;DHT22;5026;51.494;11.974;2022-09-09T12:29:18;25.00;78.80
9971;DHT22;5026;51.494;11.974;2022-09-09T12:31:55;24.80;79.20
9971;DHT22;5026;51.494;11.974;2022-09-09T12:34:38;24.70;79.70
9971;DHT22;5026;51.494;11.974;2022-09-09T12:37:14;24.40;80.20
9971;DHT22;5026;51.494;11.974;2022-09-09T12:39:47;24.20;80.50
9971;DHT22;5026;51.494;11.974;2022-09-09T12:42:17;24.10;80.70
9971;DHT22;5026;51.494;11.974;2022-09-09T12:44:56;24.20;80.80
9971;DHT22;5026;51.494;11.974;2022-09-09T12:47:29;24.40;80.60
9971;DHT22;5026;51.494;11.974;2022-09-09T12:52:30;24.50;79.40
9971;DHT22;5026;51.494;11.974;2022-09-09T12:55:00;24.40;78.70
9971;DHT22;5026;51.494;11.974;2022-09-09T12:57:33;24.40;78.70
9971;DHT22;5026;51.494;11.974;2022-09-09T13:00:11;24.30;78.60
9971;DHT22;5026;51.494;11.974;2022-09-09T13:02:50;24.30;79.00
9971;DHT22;5026;51.494;11.974;2022-09-09T13:05:19;25.10;79.20
9971;DHT22;5026;51.494;11.974;2022-09-09T13:10:19;24.80;78.20
9971;DHT22;5026;51.494;11.974;2022-09-09T13:12:47;24.90;77.60
9971;DHT22;5026;51.494;11.974;2022-09-09T13:15:20;24.90;77.10
9971;DHT22;5026;51.494;11.974;2022-09-09T13:17:53;24.80;76.80
9971;DHT22;5026;51.494;11.974;2022-09-09T13:20:21;25.10;76.80
9971;DHT22;5026;51.494;11.974;2022-09-09T13:22:49;25.10;76.00
9971;DHT22;5026;51.494;11.974;2022-09-09T13:25:20;25.10;75.90
9971;DHT22;5026;51.494;11.974;2022-09-09T13:27:57;25.00;76.30
9971;DHT22;5026;51.494;11.974;2022-09-09T13:30:28;25.10;76.30
9971;DHT22;5026;51.494;11.974;2022-09-09T13:33:20;24.90;76.20
9971;DHT22;5026;51.494;11.974;2022-09-09T13:35:51;24.90;76.30
9971;DHT22;5026;51.494;11.974;2022-09-09T13:38:20;24.90;76.30
9971;DHT22;5026;51.494;11.974;2022-09-09T13:40:54;24.90;76.10
9971;DHT22;5026;51.494;11.974;2022-09-09T13:43:24;24.30;76.50
9971;DHT22;5026;51.494;11.974;2022-09-09T13:45:57;24.00;77.00
9971;DHT22;5026;51.494;11.974;2022-09-09T13:48:25;24.00;76.80
9971;DHT22;5026;51.494;11.974;2022-09-09T13:50:57;23.90;76.80
9971;DHT22;5026;51.494;11.974;2022-09-09T14:00:47;23.50;77.60
9971;DHT22;5026;51.494;11.974;2022-09-09T14:03:16;23.60;77.50
9971;DHT22;5026;51.494;11.974;2022-09-09T14:05:44;23.70;77.30
9971;DHT22;5026;51.494;11.974;2022-09-09T14:08:16;23.90;77.30
9971;DHT22;5026;51.494;11.974;2022-09-09T14:10:43;24.20;76.90
9971;DHT22;5026;51.494;11.974;2022-09-09T14:13:10;24.40;76.80
9971;DHT22;5026;51.494;11.974;2022-09-09T14:18:05;24.70;76.50
9971;DHT22;5026;51.494;11.974;2022-09-09T14:20:33;24.70;75.30
9971;DHT22;5026;51.494;11.974;2022-09-09T14:25:27;24.50;75.10
9971;DHT22;5026;51.494;11.974;2022-09-09T14:30:21;24.50;74.90
9971;DHT22;5026;51.494;11.974;2022-09-09T14:32:48;24.50;73.40
9971;DHT22;5026;51.494;11.974;2022-09-09T14:35:15;24.50;72.70
9971;DHT22;5026;51.494;11.974;2022-09-09T14:37:44;24.30;72.90
9971;DHT22;5026;51.494;11.974;2022-09-09T14:45:07;24.10;71.40
9971;DHT22;5026;51.494;11.974;2022-09-09T14:47:35;24.00;70.50
9971;DHT22;5026;51.494;11.974;2022-09-09T14:50:04;24.00;70.90
9971;DHT22;5026;51.494;11.974;2022-09-09T14:55:00;23.80;70.80
9971;DHT22;5026;51.494;11.974;2022-09-09T14:57:26;23.80;71.20
9971;DHT22;5026;51.494;11.974;2022-09-09T14:59:53;23.90;70.90
9971;DHT22;5026;51.494;11.974;2022-09-09T15:02:20;23.90;70.70
9971;DHT22;5026;51.494;11.974;2022-09-09T15:04:47;23.80;70.60
9971;DHT22;5026;51.494;11.974;2022-09-09T15:09:45;23.70;70.70
9971;DHT22;5026;51.494;11.974;2022-09-09T15:12:14;23.60;70.20
9971;DHT22;5026;51.494;11.974;2022-09-09T15:17:11;23.50;70.60
9971;DHT22;5026;51.494;11.974;2022-09-09T15:19:38;23.40;70.80
9971;DHT22;5026;51.494;11.974;2022-09-09T15:22:05;23.50;71.50
9971;DHT22;5026;51.494;11.974;2022-09-09T15:24:33;23.50;71.70
9971;DHT22;5026;51.494;11.974;2022-09-09T15:27:01;21.30;70.00
9971;DHT22;5026;51.494;11.974;2022-09-09T15:29:29;23.40;72.20
9971;DHT22;5026;51.494;11.974;2022-09-09T15:34:23;23.50;72.70
9971;DHT22;5026;51.494;11.974;2022-09-09T15:39:18;23.60;72.60
9971;DHT22;5026;51.494;11.974;2022-09-09T15:41:45;23.60;73.10
9971;DHT22;5026;51.494;11.974;2022-09-09T15:44:13;23.70;73.30
9971;DHT22;5026;51.494;11.974;2022-09-09T15:46:43;23.70;73.10
9971;DHT22;5026;51.494;11.974;2022-09-09T15:49:12;21.90;72.00
9971;DHT22;5026;51.494;11.974;2022-09-09T15:51:41;23.70;73.60
9971;DHT22;5026;51.494;11.974;2022-09-09T15:54:09;23.80;73.70
9971;DHT22;5026;51.494;11.974;2022-09-09T15:56:36;23.80;73.60
9971;DHT22;5026;51.494;11.974;2022-09-09T15:59:03;23.80;73.40
9971;DHT22;5026;51.494;11.974;2022-09-09T16:01:31;23.70;73.00
9971;DHT22;5026;51.494;11.974;2022-09-09T16:03:59;23.60;73.30
9971;DHT22;5026;51.494;11.974;2022-09-09T16:06:27;23.50;73.30
9971;DHT22;5026;51.494;11.974;2022-09-09T16:08:55;23.40;73.40
9971;DHT22;5026;51.494;11.974;2022-09-09T16:11:23;23.20;73.80
9971;DHT22;5026;51.494;11.974;2022-09-09T16:13:52;23.00;74.40
9971;DHT22;5026;51.494;11.974;2022-09-09T16:16:21;22.80;74.80
9971;DHT22;5026;51.494;11.974;2022-09-09T16:18:51;22.60;75.30
9971;DHT22;5026;51.494;11.974;2022-09-09T16:21:21;22.50;75.60
9971;DHT22;5026;51.494;11.974;2022-09-09T16:23:50;22.40;75.80
9971;DHT22;5026;51.494;11.974;2022-09-09T16:26:19;22.30;75.60
9971;DHT22;5026;51.494;11.974;2022-09-09T16:28:46;22.20;75.40
9971;DHT22;5026;51.494;11.974;2022-09-09T16:31:14;22.10;75.60
9971;DHT22;5026;51.494;11.974;2022-09-09T16:33:42;22.00;75.50
9971;DHT22;5026;51.494;11.974;2022-09-09T16:36:10;21.90;75.70
9971;DHT22;5026;51.494;11.974;2022-09-09T16:38:39;21.80;75.80
9971;DHT22;5026;51.494;11.974;2022-09-09T16:41:08;21.70;75.90
9971;DHT22;5026;51.494;11.974;2022-09-09T16:43:36;21.70;75.30
9971;DHT22;5026;51.494;11.974;2022-09-09T16:48:32;21.60;75.50
9971;DHT22;5026;51.494;11.974;2022-09-09T16:51:03;21.60;75.20
9971;DHT22;5026;51.494;11.974;2022-09-09T16:53:32;21.50;75.90
9971;DHT22;5026;51.494;11.974;2022-09-09T16:56:04;21.50;76.10
9971;DHT22;5026;51.494;11.974;2022-09-09T16:58:32;21.40;76.10
9971;DHT22;5026;51.494;11.974;2022-09-09T17:00:59;21.40;76.80
9971;DHT22;5026;51.494;11.974;2022-09-09T17:03:27;21.40;76.70
9971;DHT22;5026;51.494;11.974;2022-09-09T17:08:23;21.20;77.40
9971;DHT22;5026;51.494;11.974;2022-09-09T17:13:18;21.10;77.80
9971;DHT22;5026;51.494;11.974;2022-09-09T17:15:51;21.10;77.50
9971;DHT22;5026;51.494;11.974;2022-09-09T17:25:41;20.80;77.80
9971;DHT22;5026;51.494;11.974;2022-09-09T17:28:08;20.70;78.00
9971;DHT22;5026;51.494;11.974;2022-09-09T17:30:37;20.60;78.20
9971;DHT22;5026;51.494;11.974;2022-09-09T17:33:04;20.50;78.30
9971;DHT22;5026;51.494;11.974;2022-09-09T17:35:32;20.50;78.70
9971;DHT22;5026;51.494;11.974;2022-09-09T17:40:27;20.30;78.80
9971;DHT22;5026;51.494;11.974;2022-09-09T17:42:56;20.20;79.00
9971;DHT22;5026;51.494;11.974;2022-09-09T17:45:23;20.10;79.30
9971;DHT22;5026;51.494;11.974;2022-09-09T17:47:54;20.00;79.30
9971;DHT22;5026;51.494;11.974;2022-09-09T17:50:21;19.90;79.80
9971;DHT22;5026;51.494;11.974;2022-09-09T17:55:15;19.90;80.30
9971;DHT22;5026;51.494;11.974;2022-09-09T18:00:10;19.70;80.50
9971;DHT22;5026;51.494;11.974;2022-09-09T18:02:37;19.70;80.50
9971;DHT22;5026;51.494;11.974;2022-09-09T18:05:06;19.30;80.50
9971;DHT22;5026;51.494;11.974;2022-09-09T18:07:33;19.60;80.90
9971;DHT22;5026;51.494;11.974;2022-09-09T18:10:00;19.60;81.20
9971;DHT22;5026;51.494;11.974;2022-09-09T18:22:18;19.30;82.50
9971;DHT22;5026;51.494;11.974;2022-09-09T18:24:45;19.20;82.60
9971;DHT22;5026;51.494;11.974;2022-09-09T18:27:13;19.20;82.90
9971;DHT22;5026;51.494;11.974;2022-09-09T18:37:01;19.00;83.40
9971;DHT22;5026;51.494;11.974;2022-09-09T18:39:29;18.90;83.60
9971;DHT22;5026;51.494;11.974;2022-09-09T18:41:58;18.80;84.30
9971;DHT22;5026;51.494;11.974;2022-09-09T18:44:28;18.80;84.60
9971;DHT22;5026;51.494;11.974;2022-09-09T18:46:56;18.80;84.80
9971;DHT22;5026;51.494;11.974;2022-09-09T18:49:24;17.40;83.70
9971;DHT22;5026;51.494;11.974;2022-09-09T18:51:51;18.70;85.10
9971;DHT22;5026;51.494;11.974;2022-09-09T18:54:20;18.60;85.30